PWSweather.com
Personal Weather Stations
Station Observations
TARRYHILL
Tarrytown, NY 10591

Tarrytown, NY 10591

Lat: 41.05185, Lon: -73.85296

Elevation: 341

Station Type: Davis Vantage Vue

Latest ConditionsUpdated 11:50:17 PM EDT Friday, Mar 27, 2015
Currently Today's Max Today's Min Today's Average
Temperature 38.8°F3.8°C 44.1°F6.7°C 36.9°F2.7°C 40.2°F4.6°C
Dew Point 29.1°F-1.6°C 40.6°F4.8°C 29.1°F-1.6°C 35.4°F1.9°C
Winds 3.1 mph NE5.0 kmh NE 4.9 mph N7.9 kmh N - 1.2 mph 1.9 kmh
Wind Gusts 2.0 mph3.2 kmh 9.0 mph14.5 kmh - -
Humidity 68% 97% 66% 84%
Pressure 29.79 in1008.8 mb 29.80 in1009.1 mb 29.66 in1004.4 mb -
Precipitation - 0.40 in10.2 mm - -
Hour Temp Dew Point Humidity Winds Wind Gusts Pressure Precip Precip Rate Daily Precip Total
11:50 PM 38.8°F3.8°C 29.1°F-1.6°C 68% 3.1 mph NE5.0 kmh NE 2.0 mph3.2 kmh 29.79 in1008.8 mb - 0.00 in0.0 mm 0.40 in10.2 mm
11:40 PM 39.0°F3.9°C 29.3°F-1.5°C 68% 0.8 mph NNW1.3 kmh NNW 3.0 mph4.8 kmh 29.79 in1008.8 mb - 0.00 in0.0 mm 0.40 in10.2 mm
11:30 PM 39.3°F4.1°C 29.6°F-1.3°C 68% 0.6 mph NNW1.0 kmh NNW 1.0 mph1.6 kmh 29.79 in1008.8 mb - 0.00 in0.0 mm 0.40 in10.2 mm
11:20 PM 39.5°F4.2°C 29.8°F-1.2°C 68% 0.9 mph N1.4 kmh N 1.0 mph1.6 kmh 29.80 in1009.1 mb - 0.00 in0.0 mm 0.40 in10.2 mm
11:10 PM 39.5°F4.2°C 30.2°F-1.0°C 69% 0.1 mph N0.2 kmh N 1.0 mph1.6 kmh 29.80 in1009.1 mb - 0.00 in0.0 mm 0.40 in10.2 mm
11:00 PM 39.4°F4.1°C 30.1°F-1.1°C 69% 0.7 mph N1.1 kmh N 1.0 mph1.6 kmh 29.79 in1008.8 mb - 0.00 in0.0 mm 0.40 in10.2 mm
10:50 PM 39.4°F4.1°C 30.4°F-0.9°C 70% 0.6 mph N1.0 kmh N 1.0 mph1.6 kmh 29.79 in1008.8 mb - 0.00 in0.0 mm 0.40 in10.2 mm
10:40 PM 39.7°F4.3°C 30.7°F-0.7°C 70% 0.8 mph NW1.3 kmh NW 2.0 mph3.2 kmh 29.79 in1008.8 mb - 0.00 in0.0 mm 0.40 in10.2 mm
10:30 PM 39.8°F4.3°C 30.8°F-0.7°C 70% 0.3 mph N0.5 kmh N 2.0 mph3.2 kmh 29.79 in1008.8 mb - 0.00 in0.0 mm 0.40 in10.2 mm
10:20 PM 39.7°F4.3°C 30.7°F-0.7°C 70% Calm Calm -- 29.79 in1008.8 mb - 0.00 in0.0 mm 0.40 in10.2 mm
10:10 PM 39.7°F4.3°C 31.1°F-0.5°C 71% Calm Calm -- 29.78 in1008.5 mb - 0.00 in0.0 mm 0.40 in10.2 mm
10:00 PM 40.0°F4.4°C 31.0°F-0.6°C 70% Calm Calm -- 29.78 in1008.5 mb - 0.00 in0.0 mm 0.40 in10.2 mm
09:50 PM 40.1°F4.5°C 31.1°F-0.5°C 70% 0.1 mph NNE0.2 kmh NNE 1.0 mph1.6 kmh 29.79 in1008.8 mb - 0.00 in0.0 mm 0.40 in10.2 mm
09:40 PM 40.0°F4.4°C 31.0°F-0.6°C 70% 0.4 mph NNE0.6 kmh NNE 1.0 mph1.6 kmh 29.79 in1008.8 mb - 0.00 in0.0 mm 0.40 in10.2 mm
09:30 PM 40.0°F4.4°C 30.7°F-0.7°C 69% Calm Calm -- 29.79 in1008.8 mb - 0.00 in0.0 mm 0.40 in10.2 mm
09:20 PM 39.9°F4.4°C 31.3°F-0.4°C 71% Calm Calm -- 29.79 in1008.8 mb - 0.00 in0.0 mm 0.40 in10.2 mm
09:10 PM 39.9°F4.4°C 31.9°F-0.1°C 73% Calm Calm -- 29.79 in1008.8 mb - 0.00 in0.0 mm 0.40 in10.2 mm
09:00 PM 39.9°F4.4°C 31.9°F-0.1°C 73% Calm Calm -- 29.78 in1008.5 mb - 0.00 in0.0 mm 0.40 in10.2 mm
08:50 PM 40.3°F4.6°C 32.0°F0.0°C 72% Calm Calm -- 29.78 in1008.5 mb - 0.00 in0.0 mm 0.40 in10.2 mm
08:40 PM 40.6°F4.8°C 31.6°F-0.2°C 70% Calm Calm -- 29.78 in1008.5 mb - 0.00 in0.0 mm 0.40 in10.2 mm
08:30 PM 40.6°F4.8°C 31.6°F-0.2°C 70% Calm Calm -- 29.78 in1008.5 mb - 0.00 in0.0 mm 0.40 in10.2 mm
08:20 PM 40.7°F4.8°C 31.3°F-0.4°C 69% Calm Calm 1.0 mph1.6 kmh 29.78 in1008.5 mb - 0.00 in0.0 mm 0.40 in10.2 mm
08:10 PM 40.9°F4.9°C 31.5°F-0.3°C 69% 0.1 mph N0.2 kmh N 1.0 mph1.6 kmh 29.77 in1008.1 mb - 0.00 in0.0 mm 0.40 in10.2 mm
08:00 PM 40.9°F4.9°C 31.5°F-0.3°C 69% 1.4 mph N2.3 kmh N 2.0 mph3.2 kmh 29.77 in1008.1 mb - 0.00 in0.0 mm 0.40 in10.2 mm
07:50 PM 41.1°F5.1°C 31.3°F-0.4°C 68% 0.7 mph NW1.1 kmh NW 1.0 mph1.6 kmh 29.76 in1007.8 mb - 0.00 in0.0 mm 0.40 in10.2 mm
07:40 PM 41.3°F5.2°C 31.5°F-0.3°C 68% 0.9 mph NE1.4 kmh NE 3.0 mph4.8 kmh 29.76 in1007.8 mb - 0.00 in0.0 mm 0.40 in10.2 mm
07:30 PM 41.5°F5.3°C 31.4°F-0.3°C 67% 1.0 mph N1.6 kmh N 2.0 mph3.2 kmh 29.76 in1007.8 mb - 0.00 in0.0 mm 0.40 in10.2 mm
07:20 PM 41.6°F5.3°C 31.5°F-0.3°C 67% 0.5 mph N0.8 kmh N 1.0 mph1.6 kmh 29.75 in1007.5 mb - 0.00 in0.0 mm 0.40 in10.2 mm
07:10 PM 41.8°F5.4°C 31.6°F-0.2°C 67% 1.3 mph NNW2.1 kmh NNW 1.0 mph1.6 kmh 29.75 in1007.5 mb - 0.00 in0.0 mm 0.40 in10.2 mm
07:00 PM 42.0°F5.6°C 31.8°F-0.1°C 67% 0.6 mph NW1.0 kmh NW -- 29.75 in1007.5 mb - 0.00 in0.0 mm 0.40 in10.2 mm
06:50 PM 42.2°F5.7°C 31.6°F-0.2°C 66% 2.6 mph NW4.2 kmh NW 4.0 mph6.4 kmh 29.74 in1007.1 mb - 0.00 in0.0 mm 0.40 in10.2 mm
06:40 PM 42.6°F5.9°C 32.0°F0.0°C 66% 1.7 mph NE2.7 kmh NE 2.0 mph3.2 kmh 29.75 in1007.5 mb - 0.00 in0.0 mm 0.40 in10.2 mm
06:30 PM 43.1°F6.2°C 32.9°F0.5°C 67% 2.7 mph NW4.3 kmh NW 5.0 mph8.0 kmh 29.74 in1007.1 mb - 0.00 in0.0 mm 0.40 in10.2 mm
06:20 PM 43.4°F6.3°C 33.2°F0.7°C 67% 1.7 mph N2.7 kmh N 4.0 mph6.4 kmh 29.74 in1007.1 mb - 0.00 in0.0 mm 0.40 in10.2 mm
06:10 PM 43.7°F6.5°C 33.5°F0.8°C 67% 2.5 mph N4.0 kmh N 4.0 mph6.4 kmh 29.73 in1006.8 mb - 0.00 in0.0 mm 0.40 in10.2 mm
06:00 PM 43.9°F6.6°C 33.6°F0.9°C 67% 1.8 mph NW2.9 kmh NW 5.0 mph8.0 kmh 29.73 in1006.8 mb - 0.00 in0.0 mm 0.40 in10.2 mm
05:50 PM 44.0°F6.7°C 34.1°F1.2°C 68% 1.5 mph NW2.4 kmh NW 2.0 mph3.2 kmh 29.73 in1006.8 mb - 0.00 in0.0 mm 0.40 in10.2 mm
05:40 PM 43.9°F6.6°C 34.4°F1.3°C 69% 1.1 mph N1.8 kmh N 3.0 mph4.8 kmh 29.74 in1007.1 mb - 0.00 in0.0 mm 0.40 in10.2 mm
05:30 PM 43.7°F6.5°C 34.6°F1.4°C 70% 1.1 mph NW1.8 kmh NW 3.0 mph4.8 kmh 29.73 in1006.8 mb - 0.00 in0.0 mm 0.40 in10.2 mm
05:20 PM 43.9°F6.6°C 34.7°F1.5°C 70% 1.1 mph N1.8 kmh N 2.0 mph3.2 kmh 29.73 in1006.8 mb - 0.00 in0.0 mm 0.40 in10.2 mm
05:10 PM 43.9°F6.6°C 34.8°F1.6°C 70% 2.6 mph W4.2 kmh W 5.0 mph8.0 kmh 29.73 in1006.8 mb - 0.00 in0.0 mm 0.40 in10.2 mm
05:00 PM 44.1°F6.7°C 35.3°F1.8°C 71% 1.1 mph WNW1.8 kmh WNW 3.0 mph4.8 kmh 29.73 in1006.8 mb - 0.00 in0.0 mm 0.40 in10.2 mm
04:50 PM 44.0°F6.7°C 34.1°F1.2°C 68% 2.3 mph NNW3.7 kmh NNW 4.0 mph6.4 kmh 29.71 in1006.1 mb - 0.00 in0.0 mm 0.40 in10.2 mm
04:40 PM 43.9°F6.6°C 34.7°F1.5°C 70% 2.3 mph NNE3.7 kmh NNE 5.0 mph8.0 kmh 29.71 in1006.1 mb - 0.00 in0.0 mm 0.40 in10.2 mm
04:30 PM 43.9°F6.6°C 34.8°F1.6°C 70% 0.4 mph NNW0.6 kmh NNW 4.0 mph6.4 kmh 29.72 in1006.4 mb - 0.00 in0.0 mm 0.40 in10.2 mm
04:20 PM 44.0°F6.7°C 35.5°F1.9°C 72% 0.8 mph NW1.3 kmh NW 2.0 mph3.2 kmh 29.73 in1006.8 mb - 0.00 in0.0 mm 0.40 in10.2 mm
04:10 PM 43.5°F6.4°C 35.7°F2.1°C 74% 0.1 mph NW0.2 kmh NW 1.0 mph1.6 kmh 29.73 in1006.8 mb - 0.00 in0.0 mm 0.40 in10.2 mm
04:00 PM 43.0°F6.1°C 35.3°F1.8°C 74% 1.4 mph WNW2.3 kmh WNW 3.0 mph4.8 kmh 29.71 in1006.1 mb - 0.00 in0.0 mm 0.40 in10.2 mm
03:50 PM 42.9°F6.1°C 35.2°F1.8°C 74% 1.5 mph N2.4 kmh N 3.0 mph4.8 kmh 29.72 in1006.4 mb - 0.00 in0.0 mm 0.40 in10.2 mm
03:40 PM 42.9°F6.1°C 34.8°F1.6°C 73% 2.2 mph NE3.5 kmh NE 4.0 mph6.4 kmh 29.74 in1007.1 mb - 0.00 in0.0 mm 0.40 in10.2 mm
03:30 PM 43.1°F6.2°C 35.0°F1.7°C 73% 1.4 mph N2.3 kmh N 2.0 mph3.2 kmh 29.75 in1007.5 mb - 0.00 in0.0 mm 0.40 in10.2 mm
03:20 PM 43.5°F6.4°C 35.4°F1.9°C 73% 1.7 mph W2.7 kmh W 4.0 mph6.4 kmh 29.74 in1007.1 mb - 0.00 in0.0 mm 0.40 in10.2 mm
03:10 PM 43.4°F6.3°C 35.7°F2.1°C 74% 0.9 mph NW1.4 kmh NW 3.0 mph4.8 kmh 29.72 in1006.4 mb - 0.00 in0.0 mm 0.40 in10.2 mm
03:00 PM 43.5°F6.4°C 35.8°F2.1°C 74% 1.2 mph N1.9 kmh N 3.0 mph4.8 kmh 29.74 in1007.1 mb - 0.00 in0.0 mm 0.40 in10.2 mm
02:50 PM 43.4°F6.3°C 36.0°F2.2°C 75% 0.7 mph WSW1.1 kmh WSW 1.0 mph1.6 kmh 29.72 in1006.4 mb - 0.00 in0.0 mm 0.40 in10.2 mm
02:40 PM 43.2°F6.2°C 36.1°F2.3°C 76% 0.9 mph NW1.4 kmh NW 7.0 mph11.3 kmh 29.72 in1006.4 mb - 0.00 in0.0 mm 0.40 in10.2 mm
02:30 PM 42.7°F5.9°C 35.3°F1.8°C 75% 3.4 mph NW5.5 kmh NW 5.0 mph8.0 kmh 29.72 in1006.4 mb - 0.00 in0.0 mm 0.40 in10.2 mm
02:20 PM 42.8°F6.0°C 35.4°F1.9°C 75% 3.5 mph NE5.6 kmh NE 5.0 mph8.0 kmh 29.72 in1006.4 mb - 0.00 in0.0 mm 0.40 in10.2 mm
02:10 PM 42.7°F5.9°C 35.7°F2.1°C 76% 1.7 mph NE2.7 kmh NE 3.0 mph4.8 kmh 29.73 in1006.8 mb - 0.00 in0.0 mm 0.40 in10.2 mm
02:00 PM 42.7°F5.9°C 36.0°F2.2°C 77% 1.4 mph N2.3 kmh N 2.0 mph3.2 kmh 29.73 in1006.8 mb - 0.00 in0.0 mm 0.40 in10.2 mm
01:50 PM 42.9°F6.1°C 36.2°F2.3°C 77% 0.5 mph ENE0.8 kmh ENE 2.0 mph3.2 kmh 29.73 in1006.8 mb - 0.00 in0.0 mm 0.40 in10.2 mm
01:40 PM 43.1°F6.2°C 36.7°F2.6°C 78% 2.6 mph NW4.2 kmh NW 4.0 mph6.4 kmh 29.73 in1006.8 mb - 0.00 in0.0 mm 0.40 in10.2 mm
01:30 PM 43.0°F6.1°C 36.6°F2.6°C 78% 0.8 mph SW1.3 kmh SW 2.0 mph3.2 kmh 29.74 in1007.1 mb - 0.00 in0.0 mm 0.40 in10.2 mm
01:20 PM 42.6°F5.9°C 36.5°F2.5°C 79% 2.7 mph WNW4.3 kmh WNW 8.0 mph12.9 kmh 29.74 in1007.1 mb - 0.00 in0.0 mm 0.40 in10.2 mm
01:10 PM 42.2°F5.7°C 36.8°F2.7°C 81% 2.7 mph NW4.3 kmh NW 5.0 mph8.0 kmh 29.73 in1006.8 mb - 0.00 in0.0 mm 0.40 in10.2 mm
01:00 PM 42.1°F5.6°C 37.0°F2.8°C 82% 1.9 mph NW3.1 kmh NW 6.0 mph9.7 kmh 29.74 in1007.1 mb - 0.00 in0.0 mm 0.40 in10.2 mm
12:50 PM 41.7°F5.4°C 36.6°F2.6°C 82% 1.1 mph NW1.8 kmh NW 5.0 mph8.0 kmh 29.73 in1006.8 mb - 0.00 in0.0 mm 0.40 in10.2 mm
12:40 PM 41.5°F5.3°C 37.0°F2.8°C 84% 2.7 mph NNW4.3 kmh NNW 4.0 mph6.4 kmh 29.73 in1006.8 mb - 0.00 in0.0 mm 0.40 in10.2 mm
12:30 PM 41.3°F5.2°C 37.1°F2.8°C 85% 4.9 mph N7.9 kmh N 9.0 mph14.5 kmh 29.73 in1006.8 mb - 0.00 in0.0 mm 0.40 in10.2 mm
12:20 PM 40.9°F4.9°C 36.7°F2.6°C 85% 1.3 mph NE2.1 kmh NE 2.0 mph3.2 kmh 29.74 in1007.1 mb - 0.00 in0.0 mm 0.40 in10.2 mm
12:10 PM 40.9°F4.9°C 37.0°F2.8°C 86% 3.1 mph NE5.0 kmh NE 4.0 mph6.4 kmh 29.75 in1007.5 mb - 0.00 in0.0 mm 0.40 in10.2 mm
12:00 PM 40.5°F4.7°C 37.0°F2.8°C 87% 2.0 mph ENE3.2 kmh ENE 7.0 mph11.3 kmh 29.74 in1007.1 mb - 0.00 in0.0 mm 0.40 in10.2 mm
11:50 AM 40.3°F4.6°C 37.0°F2.8°C 88% 2.4 mph E3.9 kmh E 3.0 mph4.8 kmh 29.75 in1007.5 mb - 0.00 in0.0 mm 0.40 in10.2 mm
11:40 AM 40.1°F4.5°C 37.4°F3.0°C 90% 3.7 mph E6.0 kmh E 5.0 mph8.0 kmh 29.75 in1007.5 mb - 0.00 in0.0 mm 0.40 in10.2 mm
11:30 AM 39.8°F4.3°C 37.4°F3.0°C 91% 1.2 mph WNW1.9 kmh WNW 7.0 mph11.3 kmh 29.76 in1007.8 mb - 0.00 in0.0 mm 0.40 in10.2 mm
11:20 AM 39.2°F4.0°C 37.1°F2.8°C 92% 4.0 mph NW6.4 kmh NW 9.0 mph14.5 kmh 29.77 in1008.1 mb - 0.00 in0.0 mm 0.40 in10.2 mm
11:10 AM 38.7°F3.7°C 37.1°F2.8°C 94% 0.2 mph NW0.3 kmh NW 3.0 mph4.8 kmh 29.77 in1008.1 mb - 0.00 in0.0 mm 0.40 in10.2 mm
11:00 AM 38.3°F3.5°C 36.5°F2.5°C 93% 2.3 mph E3.7 kmh E 5.0 mph8.0 kmh 29.77 in1008.1 mb - 0.00 in0.0 mm 0.40 in10.2 mm
10:50 AM 38.7°F3.7°C 36.8°F2.7°C 93% 0.6 mph NW1.0 kmh NW 2.0 mph3.2 kmh 29.75 in1007.5 mb - 0.00 in0.0 mm 0.40 in10.2 mm
10:40 AM 38.8°F3.8°C 37.2°F2.9°C 94% 0.4 mph NW0.6 kmh NW 2.0 mph3.2 kmh 29.75 in1007.5 mb - 0.00 in0.0 mm 0.40 in10.2 mm
10:30 AM 38.3°F3.5°C 37.0°F2.8°C 95% 1.8 mph WNW2.9 kmh WNW 2.0 mph3.2 kmh 29.74 in1007.1 mb - 0.00 in0.0 mm 0.40 in10.2 mm
10:20 AM 38.0°F3.3°C 36.7°F2.6°C 95% 0.7 mph NE1.1 kmh NE 1.0 mph1.6 kmh 29.75 in1007.5 mb - 0.00 in0.0 mm 0.40 in10.2 mm
10:10 AM 37.8°F3.2°C 36.5°F2.5°C 95% 0.4 mph NNE0.6 kmh NNE 2.0 mph3.2 kmh 29.75 in1007.5 mb - 0.00 in0.0 mm 0.40 in10.2 mm
10:00 AM 37.6°F3.1°C 36.6°F2.6°C 96% 0.2 mph N0.3 kmh N -- 29.76 in1007.8 mb - 0.00 in0.0 mm 0.40 in10.2 mm
09:50 AM 37.2°F2.9°C 35.9°F2.2°C 95% 0.1 mph W0.2 kmh W 1.0 mph1.6 kmh 29.76 in1007.8 mb - 0.00 in0.0 mm 0.40 in10.2 mm
09:40 AM 37.1°F2.8°C 35.8°F2.1°C 95% 0.4 mph NNE0.6 kmh NNE 1.0 mph1.6 kmh 29.77 in1008.1 mb - 0.00 in0.0 mm 0.40 in10.2 mm
09:30 AM 37.1°F2.8°C 35.8°F2.1°C 95% 0.1 mph NE0.2 kmh NE -- 29.78 in1008.5 mb - 0.00 in0.0 mm 0.40 in10.2 mm
09:20 AM 37.4°F3.0°C 36.4°F2.4°C 96% 0.9 mph NW1.4 kmh NW 4.0 mph6.4 kmh 29.77 in1008.1 mb - 0.00 in0.0 mm 0.40 in10.2 mm
09:10 AM 37.2°F2.9°C 35.9°F2.2°C 95% 1.3 mph NNW2.1 kmh NNW 2.0 mph3.2 kmh 29.75 in1007.5 mb - 0.00 in0.0 mm 0.40 in10.2 mm
09:00 AM 37.2°F2.9°C 35.9°F2.2°C 95% 0.5 mph NW0.8 kmh NW 1.0 mph1.6 kmh 29.74 in1007.1 mb - 0.00 in0.0 mm 0.40 in10.2 mm
08:50 AM 37.3°F2.9°C 36.0°F2.2°C 95% 0.3 mph NE0.5 kmh NE 1.0 mph1.6 kmh 29.74 in1007.1 mb - 0.00 in0.0 mm 0.40 in10.2 mm
08:40 AM 37.3°F2.9°C 36.0°F2.2°C 95% Calm Calm -- 29.76 in1007.8 mb - 0.00 in0.0 mm 0.40 in10.2 mm
08:30 AM 37.3°F2.9°C 36.0°F2.2°C 95% 0.2 mph ENE0.3 kmh ENE 1.0 mph1.6 kmh 29.76 in1007.8 mb - 0.00 in0.0 mm 0.40 in10.2 mm
08:20 AM 37.1°F2.8°C 35.8°F2.1°C 95% 0.2 mph E0.3 kmh E 2.0 mph3.2 kmh 29.75 in1007.5 mb - 0.00 in0.0 mm 0.40 in10.2 mm
08:10 AM 37.0°F2.8°C 35.7°F2.1°C 95% 1.9 mph NNW3.1 kmh NNW 5.0 mph8.0 kmh 29.74 in1007.1 mb - 0.00 in0.0 mm 0.40 in10.2 mm
08:00 AM 36.9°F2.7°C 35.9°F2.2°C 96% 0.9 mph NNW1.4 kmh NNW 3.0 mph4.8 kmh 29.75 in1007.5 mb - 0.00 in0.0 mm 0.40 in10.2 mm
07:50 AM 36.9°F2.7°C 35.9°F2.2°C 96% 0.3 mph NNW0.5 kmh NNW 1.0 mph1.6 kmh 29.75 in1007.5 mb - 0.00 in0.0 mm 0.40 in10.2 mm
07:40 AM 36.9°F2.7°C 35.9°F2.2°C 96% 0.4 mph NW0.6 kmh NW 1.0 mph1.6 kmh 29.75 in1007.5 mb - 0.01 in0.3 mm 0.40 in10.2 mm
07:30 AM 36.9°F2.7°C 35.6°F2.0°C 95% 0.3 mph NNW0.5 kmh NNW 1.0 mph1.6 kmh 29.76 in1007.8 mb - 0.00 in0.0 mm 0.39 in9.9 mm
07:20 AM 37.0°F2.8°C 35.7°F2.1°C 95% Calm Calm 1.0 mph1.6 kmh 29.76 in1007.8 mb - 0.01 in0.3 mm 0.39 in9.9 mm
07:10 AM 37.1°F2.8°C 35.8°F2.1°C 95% 0.3 mph NE0.5 kmh NE 2.0 mph3.2 kmh 29.77 in1008.1 mb - 0.02 in0.5 mm 0.38 in9.7 mm
07:00 AM 37.1°F2.8°C 35.8°F2.1°C 95% 0.2 mph NW0.3 kmh NW 2.0 mph3.2 kmh 29.77 in1008.1 mb - 0.01 in0.3 mm 0.36 in9.1 mm
06:50 AM 37.2°F2.9°C 35.9°F2.2°C 95% 1.8 mph NNW2.9 kmh NNW 3.0 mph4.8 kmh 29.76 in1007.8 mb - 0.01 in0.3 mm 0.35 in8.9 mm
06:40 AM 37.3°F2.9°C 36.3°F2.4°C 96% 1.8 mph NW2.9 kmh NW 4.0 mph6.4 kmh 29.76 in1007.8 mb - 0.00 in0.0 mm 0.34 in8.6 mm
06:30 AM 37.5°F3.1°C 36.5°F2.5°C 96% 1.9 mph N3.1 kmh N 6.0 mph9.7 kmh 29.76 in1007.8 mb - 0.01 in0.3 mm 0.34 in8.6 mm
06:20 AM 37.7°F3.2°C 36.7°F2.6°C 96% 4.2 mph NW6.8 kmh NW 7.0 mph11.3 kmh 29.75 in1007.5 mb - 0.01 in0.3 mm 0.33 in8.4 mm
06:10 AM 38.0°F3.3°C 37.0°F2.8°C 96% 1.9 mph NW3.1 kmh NW 3.0 mph4.8 kmh 29.76 in1007.8 mb - 0.02 in0.5 mm 0.32 in8.1 mm
06:00 AM 38.1°F3.4°C 37.1°F2.8°C 96% 0.4 mph W0.6 kmh W 3.0 mph4.8 kmh 29.77 in1008.1 mb - 0.02 in0.5 mm 0.30 in7.6 mm
05:50 AM 38.1°F3.4°C 37.1°F2.8°C 96% 0.7 mph WNW1.1 kmh WNW 3.0 mph4.8 kmh 29.76 in1007.8 mb - 0.01 in0.3 mm 0.28 in7.1 mm
05:40 AM 38.2°F3.4°C 37.1°F2.8°C 96% 0.3 mph N0.5 kmh N 2.0 mph3.2 kmh 29.76 in1007.8 mb - 0.03 in0.8 mm 0.27 in6.9 mm
05:30 AM 38.3°F3.5°C 37.3°F2.9°C 96% 0.3 mph NW0.5 kmh NW 2.0 mph3.2 kmh 29.75 in1007.5 mb - 0.03 in0.8 mm 0.24 in6.1 mm
05:20 AM 38.3°F3.5°C 37.3°F2.9°C 96% 0.1 mph NW0.2 kmh NW 1.0 mph1.6 kmh 29.75 in1007.5 mb - 0.02 in0.5 mm 0.21 in5.3 mm
05:10 AM 38.3°F3.5°C 37.3°F2.9°C 96% 0.7 mph NNW1.1 kmh NNW 2.0 mph3.2 kmh 29.75 in1007.5 mb - 0.02 in0.5 mm 0.19 in4.8 mm
05:00 AM 38.3°F3.5°C 37.3°F2.9°C 96% 0.3 mph SW0.5 kmh SW 1.0 mph1.6 kmh 29.74 in1007.1 mb - 0.02 in0.5 mm 0.18 in4.6 mm
04:50 AM 38.3°F3.5°C 37.3°F2.9°C 96% Calm Calm 1.0 mph1.6 kmh 29.73 in1006.8 mb - 0.02 in0.5 mm 0.16 in4.1 mm
04:40 AM 38.4°F3.6°C 37.4°F3.0°C 96% 2.6 mph NE4.2 kmh NE 2.0 mph3.2 kmh 29.73 in1006.8 mb - 0.03 in0.8 mm 0.14 in3.6 mm
04:30 AM 38.5°F3.6°C 37.2°F2.9°C 95% 0.7 mph N1.1 kmh N 3.0 mph4.8 kmh 29.72 in1006.4 mb - 0.02 in0.5 mm 0.12 in3.0 mm
04:20 AM 38.6°F3.7°C 37.3°F2.9°C 95% 0.9 mph N1.4 kmh N 2.0 mph3.2 kmh 29.72 in1006.4 mb - 0.03 in0.8 mm 0.09 in2.3 mm
04:10 AM 38.7°F3.7°C 37.4°F3.0°C 95% 0.6 mph NNW1.0 kmh NNW 3.0 mph4.8 kmh 29.73 in1006.8 mb - 0.02 in0.5 mm 0.07 in1.8 mm
04:00 AM 38.8°F3.8°C 37.5°F3.1°C 95% Calm Calm 1.0 mph1.6 kmh 29.73 in1006.8 mb - 0.01 in0.3 mm 0.05 in1.3 mm
03:50 AM 38.9°F3.8°C 37.6°F3.1°C 95% 0.1 mph NNW0.2 kmh NNW -- 29.73 in1006.8 mb - 0.01 in0.3 mm 0.04 in1.0 mm
03:40 AM 39.0°F3.9°C 37.7°F3.2°C 95% 2.1 mph E3.4 kmh E 3.0 mph4.8 kmh 29.72 in1006.4 mb - 0.00 in0.0 mm 0.03 in0.8 mm
03:30 AM 39.1°F3.9°C 37.8°F3.2°C 95% 2.2 mph N3.5 kmh N 4.0 mph6.4 kmh 29.71 in1006.1 mb - 0.01 in0.3 mm 0.03 in0.8 mm
03:20 AM 39.2°F4.0°C 37.6°F3.1°C 94% 2.0 mph NNW3.2 kmh NNW 4.0 mph6.4 kmh 29.70 in1005.8 mb - 0.00 in0.0 mm 0.02 in0.5 mm
03:10 AM 39.2°F4.0°C 37.9°F3.3°C 95% 1.0 mph NW1.6 kmh NW 3.0 mph4.8 kmh 29.71 in1006.1 mb - 0.00 in0.0 mm 0.02 in0.5 mm
03:00 AM 39.2°F4.0°C 37.6°F3.1°C 94% 0.3 mph NNW0.5 kmh NNW 1.0 mph1.6 kmh 29.70 in1005.8 mb - 0.00 in0.0 mm 0.02 in0.5 mm
02:50 AM 39.3°F4.1°C 38.0°F3.3°C 95% 1.4 mph WNW2.3 kmh WNW 4.0 mph6.4 kmh 29.71 in1006.1 mb - 0.00 in0.0 mm 0.02 in0.5 mm
02:40 AM 39.3°F4.1°C 38.0°F3.3°C 95% 3.0 mph NNE4.8 kmh NNE 6.0 mph9.7 kmh 29.71 in1006.1 mb - 0.00 in0.0 mm 0.02 in0.5 mm
02:30 AM 39.3°F4.1°C 37.9°F3.3°C 95% 1.8 mph N2.9 kmh N 2.0 mph3.2 kmh 29.70 in1005.8 mb - 0.01 in0.3 mm 0.02 in0.5 mm
02:20 AM 39.3°F4.1°C 38.0°F3.3°C 95% 0.1 mph NNE0.2 kmh NNE -- 29.71 in1006.1 mb - 0.00 in0.0 mm 0.01 in0.3 mm
02:10 AM 39.3°F4.1°C 38.0°F3.3°C 95% 1.5 mph NW2.4 kmh NW 3.0 mph4.8 kmh 29.71 in1006.1 mb - 0.00 in0.0 mm 0.01 in0.3 mm
02:00 AM 39.4°F4.1°C 38.4°F3.6°C 96% Calm Calm 1.0 mph1.6 kmh 29.71 in1006.1 mb - 0.00 in0.0 mm 0.01 in0.3 mm
01:50 AM 39.5°F4.2°C 38.5°F3.6°C 96% 0.2 mph NE0.3 kmh NE 1.0 mph1.6 kmh 29.70 in1005.8 mb - 0.00 in0.0 mm 0.01 in0.3 mm
01:40 AM 39.7°F4.3°C 38.6°F3.7°C 96% 0.6 mph WNW1.0 kmh WNW 2.0 mph3.2 kmh 29.69 in1005.4 mb - 0.00 in0.0 mm 0.01 in0.3 mm
01:30 AM 39.8°F4.3°C 38.8°F3.8°C 96% 1.6 mph NE2.6 kmh NE 3.0 mph4.8 kmh 29.69 in1005.4 mb - 0.00 in0.0 mm 0.01 in0.3 mm
01:20 AM 40.0°F4.4°C 38.9°F3.8°C 96% 0.9 mph WNW1.4 kmh WNW 2.0 mph3.2 kmh 29.68 in1005.1 mb - 0.00 in0.0 mm 0.01 in0.3 mm
01:10 AM 40.1°F4.5°C 39.1°F3.9°C 96% 0.3 mph NNW0.5 kmh NNW 2.0 mph3.2 kmh 29.69 in1005.4 mb - 0.00 in0.0 mm 0.01 in0.3 mm
01:00 AM 40.2°F4.6°C 39.2°F4.0°C 96% 0.2 mph N0.3 kmh N 1.0 mph1.6 kmh 29.68 in1005.1 mb - 0.00 in0.0 mm 0.01 in0.3 mm
12:50 AM 40.3°F4.6°C 39.3°F4.1°C 96% 1.2 mph NNW1.9 kmh NNW 2.0 mph3.2 kmh 29.68 in1005.1 mb - 0.00 in0.0 mm 0.01 in0.3 mm
12:40 AM 40.3°F4.6°C 39.3°F4.1°C 96% 1.2 mph NW1.9 kmh NW 3.0 mph4.8 kmh 29.68 in1005.1 mb - 0.00 in0.0 mm 0.01 in0.3 mm
12:30 AM 40.5°F4.7°C 39.4°F4.1°C 96% 2.5 mph NNE4.0 kmh NNE 5.0 mph8.0 kmh 29.68 in1005.1 mb - 0.00 in0.0 mm 0.01 in0.3 mm
12:20 AM 40.8°F4.9°C 39.8°F4.3°C 96% 2.8 mph NE4.5 kmh NE 4.0 mph6.4 kmh 29.68 in1005.1 mb - 0.01 in0.3 mm 0.01 in0.3 mm
12:10 AM 41.3°F5.2°C 40.5°F4.7°C 97% 1.6 mph NW2.6 kmh NW 3.0 mph4.8 kmh 29.67 in1004.7 mb - 0.00 in0.0 mm 0.00 in0.0 mm
12:00 AM 41.4°F5.2°C 40.6°F4.8°C 97% 2.5 mph NNW4.0 kmh NNW 5.0 mph8.0 kmh 29.66 in1004.4 mb - 0.00 in0.0 mm 0.00 in0.0 mm